QF546 YSSY-YBBN
Flight info
| Callsign | QF546 |
|---|---|
| Flight time | N/A |
| Altitude | 37000 |
| Route | OLSEM Y193 BANDA H252 BN |
| Aircraft | A320/M-SDE3FGHIRWY/LB1 |
Departure
| Time | 2026-04-24 08:54 |
|---|---|
| Airport | Sydney Kingsford Smith International Airport (YSSY) |
Arrival
| Time | N/A |
|---|---|
| Airport | Brisbane International Airport (YBBN) |
| Time | Latitude | Longitude | Altitude | Speed | Heading |
|---|---|---|---|---|---|
| 2026-04-24 08:12 | -33.93187 | 151.18024 | 30 ft | 0 kts | 189° |
| 2026-04-24 08:40 | -33.93173 | 151.18027 | 31 ft | 3 kts | 189° |
| 2026-04-24 08:40 | -33.93153 | 151.18031 | 31 ft | 3 kts | 189° |
| 2026-04-24 08:40 | -33.93136 | 151.18034 | 31 ft | 2 kts | 189° |
| 2026-04-24 08:41 | -33.93118 | 151.18040 | 31 ft | 3 kts | 216° |
| 2026-04-24 08:41 | -33.93106 | 151.18056 | 31 ft | 3 kts | 253° |
| 2026-04-24 08:41 | -33.93103 | 151.18079 | 31 ft | 3 kts | 275° |
| 2026-04-24 08:41 | -33.93104 | 151.18092 | 31 ft | 1 kts | 279° |
| 2026-04-24 08:42 | -33.93104 | 151.18095 | 31 ft | 0 kts | 279° |
| 2026-04-24 08:44 | -33.93101 | 151.18070 | 31 ft | 8 kts | 279° |
| 2026-04-24 08:44 | -33.93091 | 151.17993 | 31 ft | 10 kts | 279° |
| 2026-04-24 08:44 | -33.93078 | 151.17898 | 30 ft | 13 kts | 279° |
| 2026-04-24 08:45 | -33.93062 | 151.17786 | 30 ft | 15 kts | 283° |
| 2026-04-24 08:45 | -33.93022 | 151.17666 | 30 ft | 16 kts | 294° |
| 2026-04-24 08:45 | -33.93017 | 151.17560 | 30 ft | 11 kts | 199° |
| 2026-04-24 08:45 | -33.93095 | 151.17531 | 30 ft | 13 kts | 189° |
| 2026-04-24 08:46 | -33.93191 | 151.17543 | 30 ft | 15 kts | 170° |
| 2026-04-24 08:46 | -33.93301 | 151.17567 | 30 ft | 17 kts | 170° |
| 2026-04-24 08:46 | -33.93425 | 151.17587 | 29 ft | 19 kts | 180° |
| 2026-04-24 08:46 | -33.93554 | 151.17600 | 27 ft | 14 kts | 168° |
| 2026-04-24 08:47 | -33.93648 | 151.17635 | 29 ft | 14 kts | 155° |
| 2026-04-24 08:47 | -33.93761 | 151.17689 | 20 ft | 21 kts | 171° |
| 2026-04-24 08:47 | -33.93870 | 151.17752 | 22 ft | 15 kts | 143° |
| 2026-04-24 08:47 | -33.93964 | 151.17806 | 23 ft | 15 kts | 163° |
| 2026-04-24 08:48 | -33.94072 | 151.17836 | 23 ft | 17 kts | 172° |
| 2026-04-24 08:48 | -33.94190 | 151.17856 | 24 ft | 18 kts | 170° |
| 2026-04-24 08:48 | -33.94317 | 151.17882 | 24 ft | 19 kts | 170° |
| 2026-04-24 08:48 | -33.94454 | 151.17909 | 25 ft | 19 kts | 194° |
| 2026-04-24 08:49 | -33.94543 | 151.17887 | 23 ft | 14 kts | 165° |
| 2026-04-24 08:49 | -33.94633 | 151.17911 | 26 ft | 14 kts | 168° |
| 2026-04-24 08:49 | -33.94741 | 151.17938 | 22 ft | 17 kts | 168° |
| 2026-04-24 08:49 | -33.94869 | 151.17970 | 21 ft | 20 kts | 168° |
| 2026-04-24 08:50 | -33.95004 | 151.18005 | 25 ft | 19 kts | 168° |
| 2026-04-24 08:50 | -33.95101 | 151.18070 | 27 ft | 16 kts | 112° |
| 2026-04-24 08:50 | -33.95084 | 151.18210 | 24 ft | 19 kts | 78° |
| 2026-04-24 08:50 | -33.95056 | 151.18371 | 26 ft | 20 kts | 78° |
| 2026-04-24 08:51 | -33.95032 | 151.18499 | 27 ft | 15 kts | 78° |
| 2026-04-24 08:51 | -33.95009 | 151.18626 | 25 ft | 13 kts | 78° |
| 2026-04-24 08:51 | -33.94999 | 151.18685 | 24 ft | 8 kts | 78° |
| 2026-04-24 08:51 | -33.94997 | 151.18693 | 24 ft | 0 kts | 77° |
| 2026-04-24 08:52 | -33.94997 | 151.18697 | 24 ft | 3 kts | 77° |
| 2026-04-24 08:52 | -33.94982 | 151.18773 | 24 ft | 16 kts | 77° |
| 2026-04-24 08:53 | -33.95018 | 151.18846 | 23 ft | 11 kts | 163° |
| 2026-04-24 08:53 | -33.95257 | 151.18910 | 20 ft | 69 kts | 168° |
| 2026-04-24 08:53 | -33.95925 | 151.19083 | 29 ft | 124 kts | 168° |
| 2026-04-24 08:53 | -33.96879 | 151.19329 | 209 ft | 149 kts | 168° |
| 2026-04-24 08:54 | -33.97907 | 151.19626 | 689 ft | 155 kts | 156° |
| 2026-04-24 08:54 | -33.98750 | 151.20422 | 1210 ft | 156 kts | 129° |
| 2026-04-24 08:54 | -33.99434 | 151.21444 | 1717 ft | 160 kts | 124° |
| 2026-04-24 08:54 | -34.00095 | 151.22602 | 1995 ft | 175 kts | 121° |
| 2026-04-24 08:55 | -34.00764 | 151.23911 | 2242 ft | 195 kts | 121° |
| 2026-04-24 08:55 | -34.01615 | 151.25375 | 2179 ft | 236 kts | 126° |
| 2026-04-24 08:55 | -34.02789 | 151.27023 | 2178 ft | 278 kts | 135° |
| 2026-04-24 08:55 | -34.04251 | 151.28570 | 3118 ft | 277 kts | 133° |
| 2026-04-24 08:56 | -34.05182 | 151.30460 | 4376 ft | 260 kts | 104° |
| 2026-04-24 08:56 | -34.05369 | 151.32560 | 5627 ft | 248 kts | 86° |
| 2026-04-24 08:56 | -34.05031 | 151.34613 | 6432 ft | 253 kts | 69° |
| 2026-04-24 08:56 | -34.04133 | 151.36443 | 7241 ft | 257 kts | 48° |
| 2026-04-24 08:57 | -34.02680 | 151.37773 | 7858 ft | 270 kts | 29° |
| 2026-04-24 08:57 | -34.00993 | 151.38820 | 8600 ft | 275 kts | 28° |
| 2026-04-24 08:57 | -33.99269 | 151.39855 | 9355 ft | 280 kts | 28° |
| 2026-04-24 08:57 | -33.97508 | 151.40896 | 10118 ft | 284 kts | 28° |
| 2026-04-24 08:58 | -33.95680 | 151.41977 | 10492 ft | 304 kts | 28° |
| 2026-04-24 08:58 | -33.93709 | 151.43146 | 10692 ft | 326 kts | 28° |
| 2026-04-24 08:58 | -33.91642 | 151.44370 | 11180 ft | 335 kts | 28° |
| 2026-04-24 08:58 | -33.89536 | 151.45616 | 11822 ft | 339 kts | 28° |
| 2026-04-24 08:59 | -33.87406 | 151.46879 | 12473 ft | 343 kts | 28° |
| 2026-04-24 08:59 | -33.85257 | 151.48153 | 13127 ft | 347 kts | 28° |
| 2026-04-24 08:59 | -33.83081 | 151.49445 | 13765 ft | 351 kts | 28° |
| 2026-04-24 08:59 | -33.80879 | 151.50752 | 14400 ft | 355 kts | 28° |
| 2026-04-24 09:00 | -33.78655 | 151.52074 | 14977 ft | 358 kts | 28° |
| 2026-04-24 09:00 | -33.76411 | 151.53408 | 15560 ft | 361 kts | 28° |
| 2026-04-24 09:00 | -33.74147 | 151.54749 | 16136 ft | 364 kts | 28° |
| 2026-04-24 09:00 | -33.71862 | 151.56098 | 16702 ft | 367 kts | 28° |
| 2026-04-24 09:01 | -33.69557 | 151.57457 | 17270 ft | 371 kts | 28° |
| 2026-04-24 09:01 | -33.67233 | 151.58827 | 17852 ft | 374 kts | 28° |
| 2026-04-24 09:01 | -33.64891 | 151.60210 | 18435 ft | 377 kts | 29° |
| 2026-04-24 09:01 | -33.62533 | 151.61611 | 18985 ft | 380 kts | 29° |
| 2026-04-24 09:02 | -33.60153 | 151.63021 | 19496 ft | 383 kts | 29° |
| 2026-04-24 09:02 | -33.57749 | 151.64438 | 20010 ft | 387 kts | 28° |
| 2026-04-24 09:02 | -33.55325 | 151.65861 | 20529 ft | 390 kts | 28° |
| 2026-04-24 09:02 | -33.52874 | 151.67297 | 21034 ft | 394 kts | 29° |
| 2026-04-24 09:03 | -33.50400 | 151.68746 | 21532 ft | 398 kts | 29° |
| 2026-04-24 09:03 | -33.47905 | 151.70209 | 22019 ft | 401 kts | 29° |
| 2026-04-24 09:03 | -33.45391 | 151.71691 | 22502 ft | 404 kts | 29° |
| 2026-04-24 09:03 | -33.42856 | 151.73186 | 22989 ft | 408 kts | 29° |
| 2026-04-24 09:04 | -33.40301 | 151.74694 | 23454 ft | 411 kts | 29° |
| 2026-04-24 09:04 | -33.37711 | 151.76184 | 23912 ft | 416 kts | 26° |
| 2026-04-24 09:04 | -33.34942 | 151.77274 | 24308 ft | 422 kts | 18° |
| 2026-04-24 09:04 | -33.32094 | 151.78184 | 24709 ft | 425 kts | 18° |
| 2026-04-24 09:05 | -33.29232 | 151.79102 | 25106 ft | 427 kts | 18° |
| 2026-04-24 09:05 | -33.26360 | 151.80025 | 25482 ft | 429 kts | 18° |
| 2026-04-24 09:05 | -33.23467 | 151.80957 | 25854 ft | 432 kts | 18° |
| 2026-04-24 09:05 | -33.20596 | 151.81882 | 26219 ft | 434 kts | 18° |
| 2026-04-24 09:06 | -33.17671 | 151.82822 | 26582 ft | 436 kts | 18° |
| 2026-04-24 09:06 | -33.14732 | 151.83769 | 26943 ft | 439 kts | 18° |
| 2026-04-24 09:06 | -33.11776 | 151.84716 | 27304 ft | 441 kts | 18° |
| 2026-04-24 09:06 | -33.08807 | 151.85669 | 27659 ft | 443 kts | 18° |
| 2026-04-24 09:07 | -33.05824 | 151.86626 | 28009 ft | 445 kts | 18° |
| 2026-04-24 09:07 | -33.02827 | 151.87592 | 28355 ft | 447 kts | 18° |
| 2026-04-24 09:07 | -32.96788 | 151.89536 | 29036 ft | 452 kts | 17° |
| 2026-04-24 09:08 | -32.93744 | 151.90511 | 29382 ft | 454 kts | 17° |
| 2026-04-24 09:08 | -32.91725 | 151.91158 | 29590 ft | 455 kts | 17° |
| 2026-04-24 09:08 | -32.88656 | 151.92134 | 29938 ft | 458 kts | 18° |
| 2026-04-24 09:08 | -32.85573 | 151.93114 | 30276 ft | 459 kts | 18° |
| 2026-04-24 09:09 | -32.82483 | 151.94096 | 30681 ft | 459 kts | 18° |
| 2026-04-24 09:09 | -32.79402 | 151.95079 | 31076 ft | 458 kts | 18° |
| 2026-04-24 09:09 | -32.76324 | 151.96066 | 31442 ft | 458 kts | 18° |
| 2026-04-24 09:09 | -32.73247 | 151.97054 | 31806 ft | 458 kts | 18° |
| 2026-04-24 09:10 | -32.70168 | 151.98040 | 32166 ft | 458 kts | 18° |
| 2026-04-24 09:10 | -32.67088 | 151.99023 | 32532 ft | 458 kts | 18° |
| 2026-04-24 09:10 | -32.64007 | 152.00001 | 32906 ft | 458 kts | 18° |
| 2026-04-24 09:10 | -32.60932 | 152.00974 | 33276 ft | 459 kts | 18° |
| 2026-04-24 09:11 | -32.57840 | 152.01951 | 33627 ft | 459 kts | 18° |
| 2026-04-24 09:11 | -32.54763 | 152.02928 | 34004 ft | 459 kts | 18° |
| 2026-04-24 09:11 | -32.51679 | 152.03909 | 34372 ft | 459 kts | 18° |
| 2026-04-24 09:11 | -32.48594 | 152.04890 | 34694 ft | 459 kts | 18° |
| 2026-04-24 09:12 | -32.45506 | 152.05870 | 34990 ft | 460 kts | 18° |
| 2026-04-24 09:12 | -32.42411 | 152.06848 | 35249 ft | 461 kts | 18° |
| 2026-04-24 09:12 | -32.39349 | 152.07814 | 35500 ft | 462 kts | 18° |
| 2026-04-24 09:12 | -32.36241 | 152.08793 | 35761 ft | 463 kts | 18° |
| 2026-04-24 09:13 | -32.33129 | 152.09776 | 36019 ft | 463 kts | 18° |
| 2026-04-24 09:13 | -32.30016 | 152.10764 | 36273 ft | 464 kts | 18° |
| 2026-04-24 09:13 | -32.26897 | 152.11749 | 36510 ft | 464 kts | 18° |
| 2026-04-24 09:13 | -32.23774 | 152.12729 | 36754 ft | 465 kts | 18° |
| 2026-04-24 09:14 | -32.20645 | 152.13708 | 36988 ft | 465 kts | 18° |
| 2026-04-24 09:14 | -32.17512 | 152.14693 | 37196 ft | 466 kts | 17° |
| 2026-04-24 09:14 | -32.14375 | 152.15678 | 37410 ft | 467 kts | 17° |
| 2026-04-24 09:14 | -32.11232 | 152.16668 | 37475 ft | 471 kts | 17° |
| 2026-04-24 09:15 | -32.04851 | 152.18673 | 37477 ft | 477 kts | 17° |
| 2026-04-24 09:15 | -31.98434 | 152.20688 | 37481 ft | 478 kts | 17° |
| 2026-04-24 09:16 | -31.92010 | 152.22699 | 37480 ft | 478 kts | 17° |
| 2026-04-24 09:16 | -31.85583 | 152.24703 | 37481 ft | 478 kts | 17° |
| 2026-04-24 09:17 | -31.79146 | 152.26711 | 37487 ft | 479 kts | 17° |
| 2026-04-24 09:17 | -31.72706 | 152.28732 | 37497 ft | 479 kts | 17° |